Time;durP1;ratioP1;P1;durP2;ratioP2;P2;SDS_P1;SDS_P2;PMS_P1;PMS_P2;Temp;Humidity;BMP_temperature;BMP_pressure;BME280_temperature;BME280_humidity;BME280_pressure;Samples;Min_cycle;Max_cycle;Signal;HPM_P1;HPM_P2
2023/10/26 00:00:25;;;;;;;10.27;6.90;;;;;;;10.42;100.00;99493.91;5114260;27;20039;-64
2023/10/26 00:03:14;;;;;;;10.70;6.75;;;;;;;10.42;100.00;99495.81;5075063;28;20036;-64
2023/10/26 00:06:02;;;;;;;10.93;7.05;;;;;;;10.42;100.00;99503.97;5094193;28;20044;-64
2023/10/26 00:08:50;;;;;;;9.38;6.90;;;;;;;10.42;100.00;99503.97;5078562;28;20670;-63
2023/10/26 00:11:38;;;;;;;10.70;6.68;;;;;;;10.42;100.00;99509.44;5084051;28;20057;-63
2023/10/26 00:14:26;;;;;;;10.77;7.38;;;;;;;10.42;100.00;99510.22;5111401;28;20550;-64
2023/10/26 00:17:14;;;;;;;11.32;6.93;;;;;;;10.40;100.00;99511.63;5097560;28;20153;-64
2023/10/26 00:20:03;;;;;;;10.30;7.47;;;;;;;10.39;100.00;99512.72;5112989;28;20470;-64
2023/10/26 00:22:51;;;;;;;11.95;8.05;;;;;;;10.39;100.00;99515.44;5093358;28;20172;-64
2023/10/26 00:25:39;;;;;;;12.77;7.78;;;;;;;10.39;100.00;99523.63;5077405;28;20117;-62
2023/10/26 00:28:27;;;;;;;13.57;8.05;;;;;;;10.38;100.00;99527.47;5092332;28;20040;-63
2023/10/26 00:31:15;;;;;;;11.13;8.15;;;;;;;10.37;100.00;99529.38;5081231;28;20128;-62
2023/10/26 00:34:03;;;;;;;10.10;8.10;;;;;;;10.38;100.00;99535.63;5098642;27;20051;-63
2023/10/26 00:36:51;;;;;;;15.70;8.20;;;;;;;10.39;100.00;99538.06;5111139;28;20035;-64
2023/10/26 00:39:39;;;;;;;13.40;8.07;;;;;;;10.40;100.00;99542.41;5097970;28;20046;-65
2023/10/26 00:42:27;;;;;;;12.90;7.95;;;;;;;10.40;100.00;99547.03;5100332;28;20043;-63
2023/10/26 00:45:15;;;;;;;18.20;8.48;;;;;;;10.40;100.00;99556.00;5104853;27;20097;-63
2023/10/26 00:48:04;;;;;;;15.68;8.40;;;;;;;10.38;100.00;99541.06;5102411;28;20043;-63
2023/10/26 00:50:52;;;;;;;14.63;8.90;;;;;;;10.36;100.00;99543.28;5101528;28;20090;-63
2023/10/26 00:53:41;;;;;;;11.05;8.50;;;;;;;10.35;100.00;99541.69;5102640;28;20060;-63
2023/10/26 00:56:29;;;;;;;11.57;7.47;;;;;;;10.34;100.00;99545.50;5084062;28;20122;-62
2023/10/26 00:59:18;;;;;;;11.60;7.90;;;;;;;10.32;100.00;99548.53;5072220;28;20050;-63
2023/10/26 01:02:06;;;;;;;11.38;8.35;;;;;;;10.31;100.00;99543.38;5078547;28;20039;-64
2023/10/26 01:04:54;;;;;;;11.00;7.82;;;;;;;10.30;100.00;99539.84;5090665;28;20492;-63
2023/10/26 01:07:42;;;;;;;10.60;8.20;;;;;;;10.27;100.00;99551.31;5096201;28;20511;-63
2023/10/26 01:10:30;;;;;;;10.52;8.43;;;;;;;10.26;100.00;99563.28;5111329;28;20193;-63
2023/10/26 01:13:19;;;;;;;12.20;8.38;;;;;;;10.25;100.00;99567.13;5084094;28;20048;-64
2023/10/26 01:16:07;;;;;;;12.27;8.82;;;;;;;10.24;100.00;99563.56;5111949;28;20047;-64
2023/10/26 01:18:59;;;;;;;11.43;8.15;;;;;;;10.26;100.00;99570.66;5098199;28;20048;-64
2023/10/26 01:21:51;;;;;;;10.60;8.02;;;;;;;10.26;100.00;99571.47;5098890;28;20395;-63
2023/10/26 01:24:40;;;;;;;11.35;8.20;;;;;;;10.23;100.00;99572.84;5085303;28;20052;-64
2023/10/26 01:27:28;;;;;;;13.35;8.32;;;;;;;10.24;100.00;99590.78;5116053;28;20048;-64
2023/10/26 01:30:16;;;;;;;10.45;8.38;;;;;;;10.25;100.00;99580.75;5100756;28;20125;-63
2023/10/26 01:33:05;;;;;;;12.27;8.23;;;;;;;10.28;100.00;99584.78;5117647;28;20122;-64
2023/10/26 01:35:53;;;;;;;11.93;7.95;;;;;;;10.27;100.00;99583.97;5089306;28;20411;-64
2023/10/26 01:38:41;;;;;;;12.43;7.93;;;;;;;10.28;100.00;99576.63;5100526;28;20051;-64
2023/10/26 01:41:33;;;;;;;12.43;8.57;;;;;;;10.26;100.00;99576.09;5088220;28;20039;-64
2023/10/26 01:44:21;;;;;;;11.35;8.40;;;;;;;10.24;100.00;99574.47;5102492;28;20088;-65
2023/10/26 01:47:10;;;;;;;11.27;8.07;;;;;;;10.22;100.00;99573.97;5115505;28;20410;-64
2023/10/26 01:49:59;;;;;;;11.45;8.15;;;;;;;10.22;100.00;99575.88;5099399;28;20051;-64
2023/10/26 01:52:47;;;;;;;12.73;8.52;;;;;;;10.20;100.00;99568.03;5102804;28;20180;-63
2023/10/26 01:55:35;;;;;;;16.20;9.57;;;;;;;10.20;100.00;99567.22;5100632;28;20043;-62
2023/10/26 01:58:23;;;;;;;12.48;8.98;;;;;;;10.17;100.00;99557.72;5090898;27;20047;-63
2023/10/26 02:01:12;;;;;;;11.70;8.43;;;;;;;10.19;100.00;99566.38;5103200;28;20044;-63
2023/10/26 02:04:00;;;;;;;12.77;8.35;;;;;;;10.20;100.00;99568.03;5092304;27;20088;-63
2023/10/26 02:06:48;;;;;;;12.25;8.82;;;;;;;10.20;100.00;99581.63;5102225;28;20414;-63
2023/10/26 02:09:36;;;;;;;14.15;9.50;;;;;;;10.18;100.00;99581.09;5120345;27;20207;-62
2023/10/26 02:12:24;;;;;;;13.50;9.13;;;;;;;10.15;100.00;99573.53;5100536;27;20092;-63
2023/10/26 02:15:13;;;;;;;12.43;9.10;;;;;;;10.13;100.00;99578.47;5119838;27;20499;-63
2023/10/26 02:18:02;;;;;;;12.48;9.30;;;;;;;10.12;100.00;99576.03;5067609;28;20044;-62
2023/10/26 02:20:51;;;;;;;11.07;8.65;;;;;;;10.12;100.00;99568.66;5111009;28;20070;-64
2023/10/26 02:23:41;;;;;;;12.90;9.85;;;;;;;10.11;100.00;99564.34;5114257;28;20047;-62
2023/10/26 02:26:29;;;;;;;13.07;10.27;;;;;;;10.08;100.00;99569.56;5098721;28;20460;-61
2023/10/26 02:29:17;;;;;;;11.32;9.13;;;;;;;10.05;100.00;99570.16;5117399;28;20118;-62
2023/10/26 02:32:06;;;;;;;12.88;9.15;;;;;;;10.03;100.00;99568.53;5108782;27;20070;-64
2023/10/26 02:34:55;;;;;;;10.85;9.05;;;;;;;10.02;100.00;99571.56;5107853;27;20050;-64
2023/10/26 02:37:43;;;;;;;15.60;10.20;;;;;;;10.01;100.00;99570.75;5129472;27;20124;-64
2023/10/26 02:40:32;;;;;;;13.48;9.80;;;;;;;10.02;100.00;99582.44;5090297;27;20047;-64
2023/10/26 02:43:21;;;;;;;12.25;9.57;;;;;;;10.01;100.00;99580.84;5105662;28;20069;-62
2023/10/26 02:46:09;;;;;;;14.60;10.65;;;;;;;10.01;100.00;99568.03;5100230;28;20188;-62
2023/10/26 02:48:58;;;;;;;15.25;9.95;;;;;;;10.02;100.00;99571.56;5085767;28;20512;-64
2023/10/26 02:51:45;;;;;;;16.08;10.15;;;;;;;10.00;100.00;99569.13;5056653;28;20103;-63
2023/10/26 02:54:33;;;;;;;12.50;9.25;;;;;;;10.02;100.00;99571.56;5094119;28;20529;-62
2023/10/26 02:57:21;;;;;;;12.10;9.73;;;;;;;10.04;100.00;99566.63;5066173;28;20450;-63
2023/10/26 03:00:12;;;;;;;13.55;10.48;;;;;;;10.03;100.00;99567.75;5080199;28;20052;-63
2023/10/26 03:03:00;;;;;;;14.25;10.18;;;;;;;10.01;100.00;99569.94;5093458;28;20048;-63
2023/10/26 03:05:48;;;;;;;13.32;10.38;;;;;;;10.00;100.00;99563.66;5060283;28;20059;-64
2023/10/26 03:08:36;;;;;;;14.15;10.20;;;;;;;9.97;100.00;99558.81;5061059;28;20056;-65
2023/10/26 03:11:24;;;;;;;13.07;9.70;;;;;;;9.96;100.00;99570.03;5067718;28;20044;-59
2023/10/26 03:14:12;;;;;;;12.65;9.20;;;;;;;9.97;100.00;99568.91;5091271;28;20127;-62
2023/10/26 03:17:00;;;;;;;12.88;9.80;;;;;;;9.98;100.00;99567.78;5085647;28;20044;-63
2023/10/26 03:19:48;;;;;;;11.38;9.23;;;;;;;9.98;100.00;99559.63;5085075;28;20484;-64
2023/10/26 03:22:36;;;;;;;13.85;10.10;;;;;;;9.98;100.00;99565.06;5102049;28;20107;-61
2023/10/26 03:25:26;;;;;;;12.02;9.60;;;;;;;9.97;100.00;99555.31;5091991;28;20070;-61
2023/10/26 03:28:14;;;;;;;12.15;9.70;;;;;;;9.95;100.00;99555.59;5093455;28;20052;-63
2023/10/26 03:31:02;;;;;;;11.05;9.38;;;;;;;9.95;100.00;99544.72;5075507;28;20079;-62
2023/10/26 03:33:50;;;;;;;13.63;10.07;;;;;;;9.96;100.00;99534.66;5069780;28;20035;-63
2023/10/26 03:36:40;;;;;;;12.25;9.18;;;;;;;9.96;100.00;99540.09;5095586;28;20056;-62
2023/10/26 03:39:29;;;;;;;11.90;9.40;;;;;;;9.98;100.00;99554.19;5065549;28;20052;-64
2023/10/26 03:42:18;;;;;;;12.82;9.45;;;;;;;9.99;100.00;99561.25;5078767;28;20131;-64
2023/10/26 03:45:06;;;;;;;12.32;8.57;;;;;;;9.99;100.00;99561.25;5077939;28;20044;-62
2023/10/26 03:47:54;;;;;;;11.20;9.05;;;;;;;10.00;100.00;99557.44;5064564;28;20048;-64
2023/10/26 03:50:43;;;;;;;14.32;9.73;;;;;;;10.00;100.00;99551.97;5092853;28;20063;-64
2023/10/26 03:53:32;;;;;;;12.00;9.10;;;;;;;10.00;100.00;99552.78;5098851;28;20040;-63
2023/10/26 03:56:21;;;;;;;12.52;9.85;;;;;;;10.00;100.00;99549.25;5112130;28;20200;-63
2023/10/26 03:59:09;;;;;;;14.00;9.90;;;;;;;9.98;100.00;99559.63;5097883;28;20128;-62
2023/10/26 04:01:58;;;;;;;13.05;9.32;;;;;;;9.95;100.00;99552.06;5097954;28;20097;-64
2023/10/26 04:04:50;;;;;;;12.60;8.95;;;;;;;9.92;100.00;99544.50;5111619;28;20032;-64
2023/10/26 04:07:41;;;;;;;12.52;9.80;;;;;;;9.90;100.00;99546.69;5078155;28;20052;-62
2023/10/26 04:10:29;;;;;;;12.00;9.32;;;;;;;9.90;100.00;99542.06;5063403;28;20052;-62
2023/10/26 04:13:17;;;;;;;12.52;9.25;;;;;;;9.92;100.00;99533.63;5062847;28;20047;-62
2023/10/26 04:16:07;;;;;;;15.70;9.63;;;;;;;9.92;100.00;99536.34;5101287;28;20125;-62
2023/10/26 04:18:55;;;;;;;12.02;9.70;;;;;;;9.89;100.00;99531.50;5099190;28;20178;-63
2023/10/26 04:21:44;;;;;;;14.10;9.90;;;;;;;9.86;100.00;99542.94;5102498;28;20065;-63
2023/10/26 04:24:33;;;;;;;11.75;9.05;;;;;;;9.85;100.00;99539.44;5096354;28;20185;-64
2023/10/26 04:27:21;;;;;;;13.55;9.93;;;;;;;9.86;100.00;99535.63;5094108;28;20052;-64
2023/10/26 04:30:10;;;;;;;12.45;10.10;;;;;;;9.88;100.00;99535.31;5096736;28;20050;-63
2023/10/26 04:32:58;;;;;;;15.52;10.50;;;;;;;9.90;100.00;99538.53;5098629;28;20406;-64
2023/10/26 04:35:48;;;;;;;15.15;9.93;;;;;;;9.91;100.00;99537.44;5117590;28;20422;-64
2023/10/26 04:38:36;;;;;;;13.50;9.82;;;;;;;9.89;100.00;99532.28;5110965;28;20492;-63
2023/10/26 04:41:24;;;;;;;14.75;9.75;;;;;;;9.90;100.00;99533.09;5107827;28;20080;-63
2023/10/26 04:44:12;;;;;;;14.35;10.52;;;;;;;9.87;100.00;99539.13;5106274;28;20036;-64
2023/10/26 04:47:01;;;;;;;12.00;9.93;;;;;;;9.80;100.00;99534.06;5076691;28;20055;-65
2023/10/26 04:49:49;;;;;;;14.63;10.65;;;;;;;9.80;100.00;99539.50;5110041;28;20545;-64
2023/10/26 04:52:37;;;;;;;13.45;10.38;;;;;;;9.82;100.00;99534.56;5093617;28;20095;-65
2023/10/26 04:55:30;;;;;;;12.50;9.90;;;;;;;9.84;100.00;99537.00;5077329;28;20457;-65
2023/10/26 04:58:18;;;;;;;12.48;9.82;;;;;;;9.86;100.00;99545.66;5103268;28;20035;-64
2023/10/26 05:01:06;;;;;;;13.68;10.38;;;;;;;9.84;100.00;99539.72;5098103;28;20047;-65
2023/10/26 05:03:54;;;;;;;12.93;10.50;;;;;;;9.84;100.00;99529.66;5089803;28;20044;-64
2023/10/26 05:06:42;;;;;;;14.32;9.90;;;;;;;9.85;100.00;99520.38;5097166;28;20047;-65
2023/10/26 05:09:31;;;;;;;17.42;11.05;;;;;;;9.87;100.00;99536.41;5111496;28;20517;-63
2023/10/26 05:12:19;;;;;;;12.27;9.77;;;;;;;9.88;100.00;99525.22;5111390;28;20492;-63
2023/10/26 05:15:08;;;;;;;13.95;10.13;;;;;;;9.90;100.00;99535.81;5096005;28;20047;-64
2023/10/26 05:17:56;;;;;;;14.32;9.95;;;;;;;9.91;100.00;99531.97;5111204;28;20098;-64
2023/10/26 05:20:49;;;;;;;15.07;10.32;;;;;;;9.92;100.00;99528.97;5112603;28;20559;-65
2023/10/26 05:23:38;;;;;;;15.10;10.57;;;;;;;9.91;100.00;99537.44;5097192;28;20412;-66
2023/10/26 05:26:26;;;;;;;16.10;10.85;;;;;;;9.90;100.00;99528.47;5098236;28;20105;-66
2023/10/26 05:29:14;;;;;;;14.75;11.48;;;;;;;9.92;100.00;99531.69;5118173;28;20394;-64
2023/10/26 05:32:04;;;;;;;15.68;11.95;;;;;;;9.94;100.00;99525.97;5114116;28;20051;-65
2023/10/26 05:34:52;;;;;;;18.70;13.48;;;;;;;9.95;100.00;99528.38;5116295;28;20075;-66
2023/10/26 05:37:40;;;;;;;17.95;13.48;;;;;;;9.96;100.00;99523.78;5115355;28;20048;-65
2023/10/26 05:40:28;;;;;;;17.88;13.63;;;;;;;9.97;100.00;99525.38;5113029;28;20101;-64
2023/10/26 05:43:16;;;;;;;18.50;14.00;;;;;;;9.97;100.00;99520.72;5114957;28;20047;-64
2023/10/26 05:46:05;;;;;;;17.35;13.90;;;;;;;9.98;100.00;99526.97;5118384;28;20051;-64
2023/10/26 05:48:53;;;;;;;17.75;13.40;;;;;;;9.95;100.00;99522.13;4407227;28;10000726;-64
2023/10/26 05:51:41;;;;;;;17.67;12.60;;;;;;;9.92;100.00;99530.91;5112260;28;20075;-65
2023/10/26 05:54:29;;;;;;;15.30;11.43;;;;;;;9.88;100.00;99529.88;5112332;28;20126;-64
2023/10/26 05:57:17;;;;;;;15.13;10.77;;;;;;;9.86;100.00;99516.56;5096964;28;20047;-65
2023/10/26 06:00:06;;;;;;;13.70;9.73;;;;;;;9.86;100.00;99524.72;5094946;28;20180;-64
2023/10/26 06:02:59;;;;;;;12.40;9.30;;;;;;;9.85;100.00;99533.19;5094820;28;20051;-64
2023/10/26 06:05:47;;;;;;;12.48;9.95;;;;;;;9.80;100.00;99529.41;5107524;28;20062;-64
2023/10/26 06:08:35;;;;;;;15.48;9.85;;;;;;;9.79;100.00;99524.31;5108820;28;20047;-64
2023/10/26 06:11:23;;;;;;;17.42;10.25;;;;;;;9.77;100.00;99527.31;5078074;28;20128;-63
2023/10/26 06:14:11;;;;;;;14.70;10.05;;;;;;;9.78;100.00;99528.91;5082270;28;20047;-64
2023/10/26 06:16:59;;;;;;;16.77;10.50;;;;;;;9.79;100.00;99525.09;5111846;28;20088;-65
2023/10/26 06:19:47;;;;;;;14.85;10.55;;;;;;;9.77;100.00;99524.59;5113210;28;20043;-65
2023/10/26 06:22:35;;;;;;;14.10;10.43;;;;;;;9.77;100.00;99516.41;5096531;28;20093;-64
2023/10/26 06:25:25;;;;;;;13.23;9.93;;;;;;;9.81;100.00;99514.75;5111359;28;20055;-63
2023/10/26 06:28:13;;;;;;;17.33;12.07;;;;;;;9.77;100.00;99510.97;5110961;28;20040;-64
2023/10/26 06:31:12;;;;;;;15.82;11.32;;;;;;;9.68;100.00;99515.47;5109778;28;20514;-66
2023/10/26 06:34:00;;;;;;;16.92;12.00;;;;;;;9.66;100.00;99514.13;5097048;28;20431;-64
2023/10/26 06:36:49;;;;;;;17.30;11.52;;;;;;;9.63;100.00;99515.53;5110793;28;20054;-65
2023/10/26 06:39:37;;;;;;;16.75;13.38;;;;;;;9.67;100.00;99511.13;5096985;28;20168;-66
2023/10/26 06:42:25;;;;;;;16.40;12.50;;;;;;;9.68;100.00;99514.66;5111872;28;20130;-65
2023/10/26 06:45:19;;;;;;;17.85;11.98;;;;;;;9.73;100.00;99517.31;5111716;28;20052;-65
2023/10/26 06:48:07;;;;;;;16.05;12.10;;;;;;;9.76;100.00;99524.88;5110915;28;20055;-66
2023/10/26 06:51:02;;;;;;;16.80;11.77;;;;;;;9.77;100.00;99521.84;5109035;28;20059;-64
2023/10/26 06:53:50;;;;;;;19.75;13.23;;;;;;;9.79;100.00;99516.94;5096853;28;20526;-65
2023/10/26 06:56:38;;;;;;;15.40;11.82;;;;;;;9.76;100.00;99514.78;5110655;28;20043;-65
2023/10/26 06:59:26;;;;;;;17.02;12.00;;;;;;;9.72;100.00;99512.97;5112206;28;20563;-64
2023/10/26 07:02:14;;;;;;;15.02;11.98;;;;;;;9.75;100.00;99515.91;5081392;28;20507;-65
2023/10/26 07:05:03;;;;;;;15.02;11.77;;;;;;;9.81;100.00;99520.19;5096105;28;20495;-65
2023/10/26 07:07:51;;;;;;;17.60;13.73;;;;;;;9.86;100.00;99513.03;5096534;28;20434;-65
2023/10/26 07:10:40;;;;;;;16.52;13.13;;;;;;;9.85;100.00;99506.78;5110046;28;20055;-65
2023/10/26 07:13:29;;;;;;;16.58;12.80;;;;;;;9.83;100.00;99508.97;5094119;28;20043;-65
2023/10/26 07:16:18;;;;;;;16.25;12.80;;;;;;;9.86;100.00;99513.84;5095958;28;20071;-65
2023/10/26 07:19:06;;;;;;;15.43;12.30;;;;;;;9.90;100.00;99508.63;5095147;28;20043;-64
2023/10/26 07:21:54;;;;;;;14.15;11.70;;;;;;;9.92;100.00;99495.53;5095683;28;20137;-66
2023/10/26 07:24:42;;;;;;;14.05;11.32;;;;;;;9.92;100.00;99496.34;5083270;28;20188;-65
2023/10/26 07:27:31;;;;;;;15.75;11.48;;;;;;;9.92;100.00;99499.06;5111009;28;20132;-65
2023/10/26 07:30:19;;;;;;;13.95;10.38;;;;;;;9.94;100.00;99509.66;5096136;28;20062;-64
2023/10/26 07:33:07;;;;;;;16.67;10.85;;;;;;;9.94;100.00;99506.94;5096507;28;20051;-64
2023/10/26 07:35:56;;;;;;;13.07;10.45;;;;;;;9.94;100.00;99501.50;5114100;28;20052;-62
2023/10/26 07:38:44;;;;;;;13.82;10.85;;;;;;;9.94;100.00;99504.22;5130506;28;20583;-61
2023/10/26 07:41:32;;;;;;;11.93;9.95;;;;;;;9.93;100.00;99502.56;5103303;28;20055;-64
2023/10/26 07:44:40;;;;;;;12.60;9.85;;;;;;;9.95;100.00;99500.38;5090281;28;20043;-64
2023/10/26 07:47:30;;;;;;;14.45;11.27;;;;;;;9.95;100.00;99494.94;5127914;28;20047;-64
2023/10/26 07:50:20;;;;;;;14.20;10.80;;;;;;;9.96;100.00;99488.41;5108831;28;20404;-64
2023/10/26 07:53:08;;;;;;;13.27;10.80;;;;;;;9.97;100.00;99498.16;5069654;28;20130;-64
2023/10/26 07:55:57;;;;;;;13.57;11.07;;;;;;;9.98;100.00;99497.03;5109709;28;20044;-64
2023/10/26 07:58:45;;;;;;;14.00;11.10;;;;;;;9.98;100.00;99516.09;5111099;28;20039;-64
2023/10/26 08:01:33;;;;;;;14.98;11.27;;;;;;;9.95;100.00;99513.97;5097240;28;20067;-65
2023/10/26 08:04:22;;;;;;;13.32;11.30;;;;;;;9.95;100.00;99522.13;5115542;28;20127;-64
2023/10/26 08:07:10;;;;;;;14.63;11.40;;;;;;;9.95;100.00;99527.56;5095631;28;20040;-65
2023/10/26 08:09:58;;;;;;;16.02;12.45;;;;;;;9.98;100.00;99533.25;5110250;28;20517;-65
2023/10/26 08:12:46;;;;;;;14.35;11.82;;;;;;;9.98;100.00;99533.25;5109640;28;20054;-62
2023/10/26 08:15:34;;;;;;;16.25;12.27;;;;;;;9.97;100.00;99536.25;5094162;28;20450;-65
2023/10/26 08:18:42;;;;;;;17.48;12.98;;;;;;;9.99;100.00;99539.50;5110274;28;20047;-62
2023/10/26 08:21:30;;;;;;;16.75;12.35;;;;;;;10.00;100.00;99538.38;5110115;28;20048;-65
2023/10/26 08:24:18;;;;;;;17.98;14.75;;;;;;;9.98;100.00;99541.41;5094259;28;20495;-65
2023/10/26 08:27:07;;;;;;;18.80;15.00;;;;;;;9.96;100.00;99542.81;5108222;28;20426;-65
2023/10/26 08:29:55;;;;;;;19.15;14.95;;;;;;;9.96;100.00;99534.66;5088302;28;20067;-65
2023/10/26 08:32:43;;;;;;;15.63;13.73;;;;;;;9.95;100.00;99539.25;5093937;28;20617;-64
2023/10/26 08:35:32;;;;;;;17.98;13.65;;;;;;;9.98;100.00;99543.31;5110876;28;20406;-64
2023/10/26 08:38:19;;;;;;;16.98;13.05;;;;;;;10.01;100.00;99553.63;5095175;28;20565;-64
2023/10/26 08:41:13;;;;;;;16.10;12.88;;;;;;;10.04;100.00;99558.47;5108692;28;20081;-65
2023/10/26 08:44:02;;;;;;;13.63;10.13;;;;;;;10.07;100.00;99552.41;5096261;28;20048;-64
2023/10/26 08:46:52;;;;;;;19.00;13.70;;;;;;;10.06;100.00;99561.69;5093871;28;20043;-65
2023/10/26 08:49:45;;;;;;;19.98;12.77;;;;;;;10.09;100.00;99550.22;5093208;28;20059;-65
2023/10/26 08:52:46;;;;;;;;;;;;;;;10.13;100.00;99556.69;5087216;28;20040;-64
2023/10/26 08:55:38;;;;;;;19.63;14.27;;;;;;;10.15;100.00;99559.94;5109229;28;19923;-65
2023/10/26 08:58:26;;;;;;;16.50;12.93;;;;;;;10.12;100.00;99555.06;5093717;28;20120;-65
2023/10/26 09:01:15;;;;;;;15.52;12.77;;;;;;;10.03;100.00;99545.97;5076790;28;20048;-64
2023/10/26 09:04:14;;;;;;;16.58;12.60;;;;;;;10.01;100.00;99543.53;5125535;28;20683;-65
2023/10/26 09:07:02;;;;;;;17.15;13.10;;;;;;;10.02;100.00;99547.06;5089101;28;20048;-65
2023/10/26 09:09:50;;;;;;;16.02;13.52;;;;;;;9.97;100.00;99539.78;5061582;28;20456;-63
2023/10/26 09:12:38;;;;;;;19.00;13.27;;;;;;;9.94;100.00;99534.13;5105052;28;20058;-64
2023/10/26 09:15:27;;;;;;;19.65;13.95;;;;;;;9.94;100.00;99531.41;5116421;28;20151;-65
2023/10/26 09:18:15;;;;;;;17.35;13.93;;;;;;;9.94;100.00;99525.97;5110550;28;20044;-65
2023/10/26 09:21:06;;;;;;;17.98;13.57;;;;;;;9.95;100.00;99531.09;5096311;28;20036;-65
2023/10/26 09:23:54;;;;;;;17.08;13.40;;;;;;;10.02;100.00;99536.19;5119270;28;20043;-65
2023/10/26 09:26:42;;;;;;;17.52;14.25;;;;;;;10.10;100.00;99531.97;5060702;28;20056;-64
2023/10/26 09:29:40;;;;;;;22.35;15.15;;;;;;;10.14;100.00;99516.66;5094885;28;20704;-65
2023/10/26 09:32:32;;;;;;;18.75;14.68;;;;;;;10.18;100.00;99513.06;5080463;28;20385;-64
2023/10/26 09:35:31;;;;;;;17.00;13.18;;;;;;;10.24;100.00;99513.78;5079388;28;20471;-63
2023/10/26 09:38:36;;;;;;;18.77;14.48;;;;;;;10.31;100.00;99516.16;5079331;28;20039;-65
2023/10/26 09:41:24;;;;;;;17.40;13.70;;;;;;;10.34;100.00;99518.28;5094328;28;20513;-65
2023/10/26 09:44:12;;;;;;;18.98;14.57;;;;;;;10.37;100.00;99512.25;5094413;28;20292;-66
2023/10/26 09:47:00;;;;;;;18.27;14.88;;;;;;;10.40;100.00;99519.81;5094132;28;20071;-65
2023/10/26 09:49:49;;;;;;;20.17;16.08;;;;;;;10.42;100.00;99521.13;5072429;28;20053;-65
2023/10/26 09:52:37;;;;;;;20.58;15.45;;;;;;;10.43;100.00;99524.66;5083068;28;20054;-63
2023/10/26 09:55:26;;;;;;;19.45;16.00;;;;;;;10.42;100.00;99514.88;5081073;28;20043;-65
2023/10/26 09:58:15;;;;;;;24.17;17.05;;;;;;;10.39;100.00;99515.44;5097619;28;20057;-65
2023/10/26 10:01:33;;;;;;;21.13;17.13;;;;;;;10.37;100.00;99518.50;5096427;28;20103;-64
2023/10/26 10:04:37;;;;;;;21.75;17.40;;;;;;;10.39;100.00;99510.84;5110314;28;20104;-64
2023/10/26 10:07:44;;;;;;;21.42;17.52;;;;;;;10.41;100.00;99507.78;5102243;28;20050;-65
2023/10/26 10:10:32;;;;;;;21.85;17.95;;;;;;;10.42;100.00;99518.41;5112190;28;20047;-65
2023/10/26 10:13:39;;;;;;;21.33;17.85;;;;;;;10.43;100.00;99522.72;5095666;28;20039;-65
2023/10/26 10:16:36;;;;;;;20.38;16.85;;;;;;;10.44;100.00;99524.38;5110233;28;20109;-64
2023/10/26 10:19:26;;;;;;;20.20;16.63;;;;;;;10.45;100.00;99519.72;5111579;28;20194;-63
2023/10/26 10:22:37;;;;;;;18.42;13.20;;;;;;;10.56;100.00;99523.06;5111301;28;20382;-62
2023/10/26 10:26:07;;;;;;;18.08;14.45;;;;;;;10.65;100.00;99523.97;5098314;28;20131;-62
2023/10/26 10:29:20;;;;;;;20.80;17.02;;;;;;;10.72;100.00;99513.50;5091926;28;20048;-62
2023/10/26 10:32:11;;;;;;;21.23;17.40;;;;;;;10.69;100.00;99505.13;5082105;28;20075;-64
2023/10/26 10:35:02;;;;;;;23.42;19.65;;;;;;;10.67;100.00;99510.88;5095445;28;20074;-64
2023/10/26 10:38:19;;;;;;;23.33;18.25;;;;;;;10.64;100.00;99506.84;5095081;28;20071;-64
2023/10/26 10:41:08;;;;;;;22.88;19.55;;;;;;;10.62;100.00;99498.16;5097169;28;20150;-63
2023/10/26 10:43:59;;;;;;;23.70;18.83;;;;;;;10.62;100.00;99491.91;5110033;28;20043;-63
2023/10/26 10:46:48;;;;;;;24.48;20.10;;;;;;;10.62;100.00;99481.81;5114980;28;20444;-62
2023/10/26 10:49:36;;;;;;;24.52;19.95;;;;;;;10.63;100.00;99477.16;5102471;28;20059;-64
2023/10/26 10:52:24;;;;;;;21.52;17.83;;;;;;;10.63;100.00;99478.00;5101610;28;20047;-64
2023/10/26 10:55:12;;;;;;;20.48;16.38;;;;;;;10.65;100.00;99464.88;5114125;28;20424;-64
2023/10/26 10:58:02;;;;;;;24.13;15.77;;;;;;;10.69;100.00;99464.28;5089027;28;20043;-64
2023/10/26 11:00:50;;;;;;;16.77;13.20;;;;;;;10.70;100.00;99455.78;5095015;28;20054;-64
2023/10/26 11:03:38;;;;;;;20.40;16.70;;;;;;;10.64;100.00;99468.69;5099712;28;20052;-65
2023/10/26 11:06:26;;;;;;;21.90;17.70;;;;;;;10.60;100.00;99461.44;5091581;28;20052;-62
2023/10/26 11:09:27;;;;;;;22.25;16.80;;;;;;;10.58;100.00;99464.47;5092156;28;20056;-64
2023/10/26 11:12:15;;;;;;;21.13;17.13;;;;;;;10.58;100.00;99455.47;5078572;28;20400;-64
2023/10/26 11:15:04;;;;;;;23.77;16.42;;;;;;;10.61;100.00;99452.16;5101924;28;20574;-63
2023/10/26 11:17:53;;;;;;;18.25;14.73;;;;;;;10.64;100.00;99452.34;5111271;28;20059;-63
2023/10/26 11:20:45;;;;;;;20.98;16.05;;;;;;;10.70;100.00;99452.25;5082801;28;20051;-63
2023/10/26 11:23:34;;;;;;;22.42;15.60;;;;;;;10.72;100.00;99441.88;5082717;28;20131;-64
2023/10/26 11:26:22;;;;;;;21.08;14.93;;;;;;;10.71;100.00;99448.44;5093279;28;20053;-63
2023/10/26 11:29:17;;;;;;;22.67;16.45;;;;;;;10.71;100.00;99456.63;5109651;28;20092;-63
2023/10/26 11:32:18;;;;;;;19.42;14.80;;;;;;;10.73;100.00;99459.84;5091658;28;20141;-62
2023/10/26 11:35:16;;;;;;;19.42;15.48;;;;;;;10.77;100.00;99456.19;5096355;28;20043;-64
2023/10/26 11:38:05;;;;;;;18.75;14.65;;;;;;;10.78;100.00;99451.56;5098265;28;20517;-63
2023/10/26 11:40:54;;;;;;;20.00;16.13;;;;;;;10.80;100.00;99457.50;5110747;28;20052;-63
2023/10/26 11:43:42;;;;;;;19.88;16.25;;;;;;;10.81;100.00;99461.84;5114029;28;20051;-65
2023/10/26 11:46:35;;;;;;;20.45;16.80;;;;;;;10.84;100.00;99463.97;5084756;28;20042;-63
2023/10/26 11:49:37;;;;;;;20.27;16.35;;;;;;;10.85;100.00;99457.41;4742325;28;10000868;-66
2023/10/26 11:52:25;;;;;;;20.95;17.15;;;;;;;10.89;100.00;99461.13;5084538;28;20043;-63
2023/10/26 11:55:14;;;;;;;20.85;16.80;;;;;;;10.85;100.00;99471.03;5120166;28;20040;-61
2023/10/26 11:58:03;;;;;;;18.63;15.48;;;;;;;10.86;100.00;99473.44;5118598;28;20067;-59
2023/10/26 12:00:51;;;;;;;17.77;14.88;;;;;;;10.85;100.00;99454.69;5123504;28;20548;-62
2023/10/26 12:03:47;;;;;;;20.00;15.05;;;;;;;10.88;100.00;99454.88;5117582;28;20560;-63
2023/10/26 12:06:35;;;;;;;20.95;14.27;;;;;;;10.94;100.00;99446.59;5124107;28;20070;-63
2023/10/26 12:09:23;;;;;;;16.77;13.90;;;;;;;10.91;100.00;99441.75;5122099;28;20157;-61
2023/10/26 12:12:11;;;;;;;15.70;12.77;;;;;;;10.91;100.00;99434.38;5109656;28;20090;-62
2023/10/26 12:14:59;;;;;;;17.08;13.40;;;;;;;10.95;100.00;99429.16;5101766;28;20039;-62
2023/10/26 12:17:50;;;;;;;15.23;12.30;;;;;;;11.01;100.00;99428.72;5112983;27;20504;-64
2023/10/26 12:20:39;;;;;;;16.67;12.93;;;;;;;11.04;100.00;99430.84;5117832;27;20027;-63
2023/10/26 12:23:27;;;;;;;15.07;11.23;;;;;;;11.07;100.00;99432.97;5107810;27;20039;-62
2023/10/26 12:26:15;;;;;;;16.13;13.05;;;;;;;11.05;100.00;99432.47;5132870;27;20042;-62
2023/10/26 12:29:06;;;;;;;15.77;12.45;;;;;;;11.05;100.00;99435.19;5116213;27;20270;-62
2023/10/26 12:31:54;;;;;;;16.80;12.98;;;;;;;11.05;100.00;99434.38;5115042;27;20376;-63
2023/10/26 12:34:42;;;;;;;16.35;12.27;;;;;;;11.05;100.00;99416.09;5081316;28;20196;-62
2023/10/26 12:37:31;;;;;;;14.15;10.85;;;;;;;11.05;100.00;99418.81;5105443;27;20496;-62
2023/10/26 12:40:20;;;;;;;16.63;11.98;;;;;;;11.05;100.00;99418.81;5103103;27;20051;-63
2023/10/26 12:43:08;;;;;;;18.23;13.27;;;;;;;11.05;100.00;99418.81;5119361;27;20118;-61
2023/10/26 12:45:56;;;;;;;17.27;12.48;;;;;;;11.02;100.00;99408.53;5113962;28;20499;-62
2023/10/26 12:48:44;;;;;;;18.23;12.85;;;;;;;11.03;100.00;99415.59;5112411;28;20067;-62
2023/10/26 12:51:33;;;;;;;19.38;14.25;;;;;;;11.05;100.00;99416.09;5074382;27;20060;-65
2023/10/26 12:54:21;;;;;;;18.40;13.70;;;;;;;11.05;100.00;99407.94;5104675;28;20096;-61
2023/10/26 12:57:09;;;;;;;17.20;13.02;;;;;;;11.13;100.00;99416.50;5091031;28;20174;-64
2023/10/26 12:59:57;;;;;;;10.52;8.00;;;;;;;11.25;100.00;99414.84;5092497;28;20040;-64